Time;durP1;ratioP1;P1;durP2;ratioP2;P2;SDS_P1;SDS_P2;PMS_P1;PMS_P2;Temp;Humidity;BMP_temperature;BMP_pressure;BME280_temperature;BME280_humidity;BME280_pressure;Samples;Min_cycle;Max_cycle;Signal;HPM_P1;HPM_P2
2022/09/15 00:01:32;;;;;;;9.18;8.25;;;;;;;15.44;90.18;98762.75;2235005;78;21042;-77
2022/09/15 00:04:34;;;;;;;13.18;9.48;;;;;;;15.47;90.53;98763.63;2235780;78;20999;-77
2022/09/15 00:07:36;;;;;;;11.12;8.88;;;;;;;15.51;90.63;98766.64;2239919;78;21083;-75
2022/09/15 00:10:48;;;;;;;10.03;8.53;;;;;;;15.55;90.67;98757.13;2237371;78;20999;-75
2022/09/15 00:13:51;;;;;;;13.32;9.50;;;;;;;15.55;90.41;98759.27;2237868;78;21063;-76
2022/09/15 00:16:53;;;;;;;12.60;9.68;;;;;;;15.55;90.56;98763.28;2238997;78;22259;-79
2022/09/15 00:19:57;;;;;;;14.33;10.43;;;;;;;15.57;90.58;98763.88;2233640;78;20983;-83
2022/09/15 00:22:58;;;;;;;11.30;9.90;;;;;;;15.60;90.66;98759.92;2234468;78;20921;-76
2022/09/15 00:26:00;;;;;;;12.65;10.45;;;;;;;15.57;90.43;98757.19;2235667;78;20996;-77
2022/09/15 00:29:03;;;;;;;15.75;9.85;;;;;;;15.55;90.55;98748.58;2234227;78;21103;-76
2022/09/15 00:32:05;;;;;;;11.43;9.58;;;;;;;15.57;90.78;98745.66;2233838;78;21087;-76
2022/09/15 00:35:08;;;;;;;10.55;9.43;;;;;;;15.60;90.78;98739.88;2237966;78;21482;-77
2022/09/15 00:38:11;;;;;;;11.05;9.38;;;;;;;15.60;90.73;98746.56;2234365;78;21009;-77
2022/09/15 00:41:16;;;;;;;16.45;11.15;;;;;;;15.59;90.84;98745.72;2234273;78;20995;-78
2022/09/15 00:44:45;;;;;;;12.95;9.90;;;;;;;15.58;90.74;98741.95;2238833;78;21491;-76
2022/09/15 00:47:47;;;;;;;13.35;11.65;;;;;;;15.48;90.60;98730.49;2238835;78;21078;-78
2022/09/15 00:50:53;;;;;;;14.87;11.40;;;;;;;15.42;90.90;98729.56;2236663;78;21076;-77
2022/09/15 00:53:57;;;;;;;11.93;10.63;;;;;;;15.45;91.25;98726.95;2231854;78;21113;-77
2022/09/15 00:57:04;;;;;;;13.50;11.48;;;;;;;15.41;91.13;98711.91;2213076;78;21092;-77
2022/09/15 01:00:12;;;;;;;14.10;11.97;;;;;;;15.38;91.28;98706.22;2233707;78;21020;-78
2022/09/15 01:03:14;;;;;;;14.98;13.40;;;;;;;15.37;91.55;98715.27;2207021;78;20978;-81
2022/09/15 01:06:30;;;;;;;16.10;13.22;;;;;;;15.32;91.62;98708.49;2233173;78;21080;-77
2022/09/15 01:09:46;;;;;;;18.00;13.15;;;;;;;15.29;91.93;98707.09;2216076;79;21046;-78
2022/09/15 01:12:48;;;;;;;17.10;14.43;;;;;;;15.29;92.10;98706.25;2214437;79;21595;-80
2022/09/15 01:16:07;;;;;;;18.25;14.07;;;;;;;15.33;92.26;98714.12;2211812;79;20978;-78
2022/09/15 01:19:23;;;;;;;19.82;15.08;;;;;;;15.30;92.29;98712.72;2213846;79;21315;-78
2022/09/15 01:23:03;;;;;;;17.75;14.68;;;;;;;15.30;92.49;98718.06;2212056;79;20967;-78
2022/09/15 01:26:36;;;;;;;18.02;14.68;;;;;;;15.30;92.54;98716.73;2214451;79;20982;-79
2022/09/15 01:30:04;;;;;;;17.52;14.93;;;;;;;15.28;92.58;98715.33;2213708;79;21484;-79
2022/09/15 01:33:42;;;;;;;21.10;16.42;;;;;;;15.30;92.79;98714.58;2216363;79;21600;-79
2022/09/15 01:36:53;;;;;;;20.40;16.17;;;;;;;15.29;92.84;98722.28;2209758;79;21018;-77
2022/09/15 01:39:58;;;;;;;19.50;16.42;;;;;;;15.24;92.88;98721.14;2217125;79;21029;-78
2022/09/15 01:43:02;;;;;;;23.85;18.12;;;;;;;15.24;93.19;98718.46;2216128;79;21025;-78
2022/09/15 01:46:06;;;;;;;21.73;17.73;;;;;;;15.27;93.50;98705.70;2215417;79;21041;-79
2022/09/15 01:49:14;;;;;;;18.60;16.45;;;;;;;15.24;93.50;98709.11;2213679;79;20947;-77
2022/09/15 01:52:19;;;;;;;19.85;16.90;;;;;;;15.21;93.51;98706.91;2218592;79;20994;-83
2022/09/15 01:55:43;;;;;;;20.50;17.05;;;;;;;15.19;93.49;98712.19;2215675;79;21077;-78
2022/09/15 01:58:45;;;;;;;20.43;16.65;;;;;;;15.19;93.59;98714.86;2218971;79;20998;-78
2022/09/15 02:01:58;;;;;;;21.80;16.97;;;;;;;15.20;93.68;98716.47;2191620;79;20943;-77
2022/09/15 02:05:08;;;;;;;21.82;17.00;;;;;;;15.22;93.75;98719.20;2215031;79;21468;-79
2022/09/15 02:08:46;;;;;;;19.42;16.52;;;;;;;15.22;93.73;98724.55;2231346;78;21535;-80
2022/09/15 02:12:06;;;;;;;18.95;16.20;;;;;;;15.27;93.80;98723.87;2234793;78;20965;-77
2022/09/15 02:15:17;;;;;;;17.52;15.40;;;;;;;15.29;93.80;98716.94;2214716;78;20977;-77
2022/09/15 02:18:36;;;;;;;19.27;16.60;;;;;;;15.28;93.84;98715.33;2237315;78;21017;-78
2022/09/15 02:21:46;;;;;;;19.02;17.02;;;;;;;15.28;93.81;98719.33;2232485;78;21092;-77
2022/09/15 02:25:01;;;;;;;22.05;16.48;;;;;;;15.27;93.65;98717.72;2238229;78;21067;-77
2022/09/15 02:28:07;;;;;;;20.57;15.68;;;;;;;15.25;93.82;98718.74;2239645;78;21480;-86
2022/09/15 02:31:14;;;;;;;17.27;14.95;;;;;;;15.25;93.72;98720.08;2236554;78;21113;-77
2022/09/15 02:34:39;;;;;;;18.52;15.75;;;;;;;15.22;93.77;98724.55;2235782;78;21020;-77
2022/09/15 02:37:41;;;;;;;18.17;16.27;;;;;;;15.23;93.98;98731.55;2233989;78;21100;-77
2022/09/15 02:40:44;;;;;;;18.40;15.38;;;;;;;15.24;94.07;98731.02;2211706;78;20997;-77
2022/09/15 02:43:49;;;;;;;19.92;17.07;;;;;;;15.23;94.03;98724.86;2238836;78;21047;-78
2022/09/15 02:46:51;;;;;;;22.52;16.37;;;;;;;15.25;94.15;98736.64;2238984;78;21037;-80
2022/09/15 02:49:54;;;;;;;21.02;17.67;;;;;;;15.25;94.16;98733.44;2237332;78;21041;-79
2022/09/15 02:52:57;;;;;;;19.90;17.57;;;;;;;15.25;94.21;98737.45;2233546;78;21462;-80
2022/09/15 02:55:59;;;;;;;19.62;17.50;;;;;;;15.27;94.24;98736.42;2232584;78;21038;-78
2022/09/15 02:59:01;;;;;;;20.75;17.50;;;;;;;15.24;94.18;98737.16;2240419;78;21568;-79
2022/09/15 03:02:04;;;;;;;22.95;18.95;;;;;;;15.23;94.22;98737.38;2237496;78;21028;-79
2022/09/15 03:05:08;;;;;;;26.95;20.27;;;;;;;15.20;94.17;98738.69;2234046;78;20981;-77
2022/09/15 03:08:10;;;;;;;21.75;18.80;;;;;;;15.21;94.25;98731.48;2197224;79;21626;-77
2022/09/15 03:11:11;;;;;;;29.72;20.95;;;;;;;15.21;94.30;98731.48;2220840;79;20962;-77
2022/09/15 03:14:13;;;;;;;21.70;18.77;;;;;;;15.18;94.19;98727.94;2214225;79;21037;-76
2022/09/15 03:17:15;;;;;;;25.37;21.68;;;;;;;15.16;94.14;98732.16;2212086;79;20997;-78
2022/09/15 03:20:21;;;;;;;25.85;19.32;;;;;;;15.14;94.26;98732.90;2218467;79;20993;-76
2022/09/15 03:23:23;;;;;;;19.02;17.02;;;;;;;15.11;94.13;98732.03;2212516;79;21042;-77
2022/09/15 03:26:25;;;;;;;24.32;17.42;;;;;;;15.08;94.17;98731.69;2218065;79;21025;-78
2022/09/15 03:29:27;;;;;;;22.80;17.10;;;;;;;15.04;94.23;98731.34;2217332;79;20970;-78
2022/09/15 03:32:29;;;;;;;11.95;10.75;;;;;;;15.02;94.14;98736.08;2215891;79;21005;-80
2022/09/15 03:35:31;;;;;;;18.15;10.25;;;;;;;14.92;94.21;98743.33;2179880;79;21001;-78
2022/09/15 03:38:33;;;;;;;17.32;9.00;;;;;;;14.77;93.24;98750.93;2216032;79;21014;-79
2022/09/15 03:41:35;;;;;;;13.25;7.75;;;;;;;14.62;93.11;98755.35;2191067;79;21830;-78
2022/09/15 03:44:36;;;;;;;10.35;6.50;;;;;;;14.53;92.96;98774.87;2209334;79;21025;-78
2022/09/15 03:47:39;;;;;;;13.32;6.03;;;;;;;14.40;92.76;98779.52;2216193;79;20982;-78
2022/09/15 03:50:40;;;;;;;13.15;6.20;;;;;;;14.32;92.76;98790.78;2210401;79;20998;-76
2022/09/15 03:53:42;;;;;;;7.42;5.35;;;;;;;14.25;92.75;98794.59;2213591;79;21407;-79
2022/09/15 03:56:47;;;;;;;6.25;4.75;;;;;;;14.17;92.79;98794.88;2214786;79;21037;-78
2022/09/15 03:59:48;;;;;;;13.08;5.67;;;;;;;14.10;92.62;98800.27;2209748;79;21012;-81
2022/09/15 04:02:50;;;;;;;8.00;4.30;;;;;;;14.05;92.71;98800.95;2188194;79;21062;-86
2022/09/15 04:05:52;;;;;;;11.83;4.97;;;;;;;13.99;92.46;98803.67;2212100;79;21541;-79
2022/09/15 04:08:54;;;;;;;11.73;5.53;;;;;;;13.94;92.51;98804.84;2231706;78;21128;-82
2022/09/15 04:11:56;;;;;;;10.82;4.97;;;;;;;13.93;92.83;98812.55;2232689;78;21099;-78
2022/09/15 04:14:58;;;;;;;11.08;4.97;;;;;;;13.93;92.88;98821.89;2234686;78;21104;-78
2022/09/15 04:18:00;;;;;;;9.48;4.95;;;;;;;13.91;92.86;98832.78;2236483;78;21029;-77
2022/09/15 04:21:06;;;;;;;11.57;5.03;;;;;;;13.88;92.79;98843.37;2235112;78;21016;-78
2022/09/15 04:24:08;;;;;;;11.97;5.80;;;;;;;13.86;92.82;98828.63;2238634;78;21508;-78
2022/09/15 04:27:09;;;;;;;9.48;5.55;;;;;;;13.84;92.90;98820.02;2235480;78;21131;-77
2022/09/15 04:30:12;;;;;;;10.15;5.22;;;;;;;13.83;92.98;98818.41;2237325;78;21056;-78
2022/09/15 04:33:13;;;;;;;13.28;5.53;;;;;;;13.86;93.04;98814.77;2232903;78;21562;-79
2022/09/15 04:36:19;;;;;;;14.60;5.05;;;;;;;13.82;92.73;98814.89;2234212;78;21551;-77
2022/09/15 04:39:22;;;;;;;12.98;5.47;;;;;;;13.83;92.96;98821.88;2235384;78;21063;-74
2022/09/15 04:42:24;;;;;;;12.68;5.87;;;;;;;13.85;93.03;98817.15;2236377;78;21047;-76
2022/09/15 04:45:26;;;;;;;15.53;5.08;;;;;;;13.85;92.84;98828.31;2237829;78;20998;-77
2022/09/15 04:48:28;;;;;;;14.28;4.45;;;;;;;13.84;92.79;98824.02;2233694;78;21060;-74
2022/09/15 04:51:30;;;;;;;10.20;4.85;;;;;;;13.83;92.78;98823.21;2212072;78;21011;-79
2022/09/15 04:54:34;;;;;;;13.15;5.17;;;;;;;13.83;92.69;98831.20;2233786;78;21142;-80
2022/09/15 04:57:36;;;;;;;10.10;4.90;;;;;;;13.83;92.74;98834.40;2235469;78;21002;-80
2022/09/15 05:00:42;;;;;;;9.93;5.22;;;;;;;13.84;92.89;98836.02;2239063;78;21858;-80
2022/09/15 05:03:45;;;;;;;13.30;4.92;;;;;;;13.85;92.92;98835.81;2208131;78;21022;-81
2022/09/15 05:06:47;;;;;;;27.65;6.72;;;;;;;13.89;92.99;98848.18;2236831;78;21158;-83
2022/09/15 05:09:49;;;;;;;8.53;5.55;;;;;;;13.91;93.06;98847.45;2239371;78;21045;-81
2022/09/15 05:12:51;;;;;;;11.20;6.53;;;;;;;13.90;92.97;98855.95;2236952;78;21088;-81
2022/09/15 05:15:53;;;;;;;9.20;5.80;;;;;;;13.89;92.97;98858.33;2238313;78;21086;-80
2022/09/15 05:19:02;;;;;;;11.93;6.78;;;;;;;13.87;93.04;98859.58;2234443;78;21469;-80
2022/09/15 05:22:03;;;;;;;21.52;6.70;;;;;;;13.91;93.26;98867.45;2238115;78;22045;-81
2022/09/15 05:25:05;;;;;;;12.43;7.40;;;;;;;13.95;93.42;98862.48;2229550;78;20985;-80
2022/09/15 05:28:07;;;;;;;10.58;7.47;;;;;;;13.97;93.35;98869.23;2239267;78;20959;-81
2022/09/15 05:31:19;;;;;;;11.65;7.60;;;;;;;13.99;93.50;98867.14;2228958;78;21007;-80
2022/09/15 05:34:21;;;;;;;15.43;6.95;;;;;;;14.01;93.57;98857.61;2237311;78;21007;-81
2022/09/15 05:37:22;;;;;;;18.12;6.42;;;;;;;14.02;93.52;98861.40;2237019;78;21347;-80
2022/09/15 05:40:24;;;;;;;11.90;5.30;;;;;;;14.01;93.16;98868.27;2233126;78;21006;-81
2022/09/15 05:43:26;;;;;;;10.75;4.72;;;;;;;14.00;93.08;98867.46;2237188;78;21003;-81
2022/09/15 05:46:28;;;;;;;13.15;5.20;;;;;;;14.01;92.94;98889.61;2207687;78;20988;-81
2022/09/15 05:49:30;;;;;;;8.85;4.67;;;;;;;13.99;92.85;98886.34;2233191;78;20969;-82
2022/09/15 05:52:32;;;;;;;14.98;6.03;;;;;;;13.99;92.85;98891.67;2240134;78;21057;-83
2022/09/15 05:55:37;;;;;;;13.88;5.25;;;;;;;14.01;93.02;98896.28;2234900;78;21014;-80
2022/09/15 05:58:41;;;;;;;14.90;5.53;;;;;;;14.01;92.99;98889.08;2233426;78;20961;-82
2022/09/15 06:01:43;;;;;;;12.05;6.17;;;;;;;14.00;92.92;98882.66;2233719;78;21025;-82
2022/09/15 06:04:44;;;;;;;13.32;6.08;;;;;;;14.05;93.10;98886.30;2237122;78;21061;-83
2022/09/15 06:07:46;;;;;;;12.73;6.15;;;;;;;14.12;93.12;98886.22;2229748;78;21023;-78
2022/09/15 06:10:47;;;;;;;8.93;5.83;;;;;;;14.14;93.04;98881.49;2211504;79;21014;-86
2022/09/15 06:13:49;;;;;;;13.45;6.50;;;;;;;14.18;92.93;98889.86;2215188;79;20997;-80
2022/09/15 06:16:51;;;;;;;12.95;6.10;;;;;;;14.26;93.16;98890.92;2220325;79;20987;-72
2022/09/15 06:19:53;;;;;;;13.45;6.58;;;;;;;14.71;94.06;98910.17;2214392;79;22122;-76
2022/09/15 06:22:55;;;;;;;13.65;6.37;;;;;;;15.24;94.27;98896.68;2210005;79;21049;-79
2022/09/15 06:26:09;;;;;;;11.75;6.78;;;;;;;15.96;94.30;98900.64;2211189;79;21017;-80
2022/09/15 06:29:12;;;;;;;10.25;5.90;;;;;;;16.62;93.54;98892.49;2217095;79;21449;-79
2022/09/15 06:32:13;;;;;;;14.90;6.12;;;;;;;17.10;91.55;98894.02;2216264;79;21610;-80
2022/09/15 06:35:15;;;;;;;10.43;5.33;;;;;;;17.36;89.73;98890.74;2215331;79;20997;-80
2022/09/15 06:38:16;;;;;;;11.48;5.80;;;;;;;17.36;87.21;98890.74;2223397;79;21007;-79
2022/09/15 06:41:18;;;;;;;13.13;5.67;;;;;;;17.31;87.40;98891.98;2212013;79;21547;-80
2022/09/15 06:44:20;;;;;;;11.57;5.15;;;;;;;17.37;86.50;98900.44;2219857;79;21003;-81
2022/09/15 06:47:22;;;;;;;10.03;4.90;;;;;;;17.34;85.85;98897.40;2216838;79;21059;-80
2022/09/15 06:50:24;;;;;;;16.87;6.05;;;;;;;17.19;84.82;98899.28;2213343;79;21418;-81
2022/09/15 06:53:33;;;;;;;9.28;4.83;;;;;;;17.33;85.78;98900.61;2218525;79;20967;-80
2022/09/15 06:56:35;;;;;;;11.10;4.17;;;;;;;17.62;85.54;98903.25;2211330;79;21529;-81
2022/09/15 06:59:36;;;;;;;10.93;4.70;;;;;;;17.96;84.11;98915.38;2216568;79;21555;-80
2022/09/15 07:02:37;;;;;;;13.58;4.97;;;;;;;17.99;83.64;98926.97;2215429;79;21427;-81
2022/09/15 07:05:42;;;;;;;10.88;4.50;;;;;;;17.94;82.52;98919.67;2220202;78;20996;-81
2022/09/15 07:08:45;;;;;;;9.08;4.80;;;;;;;17.83;82.41;98909.83;2214652;79;20983;-81
2022/09/15 07:11:46;;;;;;;8.60;4.92;;;;;;;17.90;81.53;98910.46;2216312;79;20978;-81
2022/09/15 07:14:48;;;;;;;6.37;4.30;;;;;;;17.96;81.43;98912.70;2217762;79;21042;-81
2022/09/15 07:17:50;;;;;;;11.18;4.75;;;;;;;18.24;82.02;98918.50;2216462;79;21017;-75
2022/09/15 07:20:54;;;;;;;9.75;4.85;;;;;;;18.55;80.85;98920.55;2222179;79;20998;-78
2022/09/15 07:23:57;;;;;;;10.10;5.40;;;;;;;18.75;80.23;98928.64;2215821;79;21071;-80
2022/09/15 07:26:59;;;;;;;12.37;4.95;;;;;;;18.81;80.01;98930.35;2213738;79;20987;-80
2022/09/15 07:30:02;;;;;;;11.50;5.15;;;;;;;18.80;79.51;98938.92;2221150;79;21014;-80
2022/09/15 07:33:07;;;;;;;9.05;5.33;;;;;;;18.69;77.28;98939.01;2212530;79;21525;-80
2022/09/15 07:36:09;;;;;;;10.93;4.67;;;;;;;18.51;77.50;98948.98;2211507;79;21019;-81
2022/09/15 07:39:11;;;;;;;10.58;4.35;;;;;;;18.55;77.82;98952.78;2217562;79;21026;-80
2022/09/15 07:42:12;;;;;;;12.88;4.25;;;;;;;18.74;77.26;98955.23;2212125;79;21009;-80
2022/09/15 07:45:14;;;;;;;9.65;4.25;;;;;;;19.13;78.02;98952.50;2217410;79;21045;-81
2022/09/15 07:48:15;;;;;;;11.05;4.58;;;;;;;19.61;76.82;98967.82;2216676;79;21026;-81
2022/09/15 07:51:17;;;;;;;6.03;3.67;;;;;;;19.56;76.25;98973.14;2215529;78;21469;-80
2022/09/15 07:54:19;;;;;;;9.08;4.30;;;;;;;19.48;75.43;98985.70;2216201;79;21472;-80
2022/09/15 07:57:20;;;;;;;9.00;3.98;;;;;;;19.27;74.50;98980.63;2216977;79;21004;-81
2022/09/15 08:00:22;;;;;;;10.32;3.67;;;;;;;18.96;73.93;98982.13;2215433;79;20994;-80
2022/09/15 08:03:23;;;;;;;13.38;3.62;;;;;;;19.03;74.98;98982.75;2216826;79;20962;-81
2022/09/15 08:06:26;;;;;;;10.80;3.92;;;;;;;19.12;74.26;98982.62;2220223;79;20959;-80
2022/09/15 08:09:27;;;;;;;8.13;3.52;;;;;;;19.26;73.90;98989.78;2228495;78;21029;-81
2022/09/15 08:12:30;;;;;;;14.50;4.55;;;;;;;19.16;74.02;98997.17;2233141;78;21000;-80
2022/09/15 08:15:36;;;;;;;8.58;3.92;;;;;;;19.30;74.35;99002.19;2234586;78;21107;-80
2022/09/15 08:18:44;;;;;;;9.75;3.02;;;;;;;19.69;73.54;99003.73;2240516;78;21001;-80
2022/09/15 08:21:43;;;;;;;12.45;3.67;;;;;;;19.62;72.53;99004.41;2237598;78;21576;-80
2022/09/15 08:24:44;;;;;;;6.33;3.15;;;;;;;19.42;71.90;99013.07;2237611;78;21017;-80
2022/09/15 08:27:46;;;;;;;6.80;3.27;;;;;;;19.10;71.28;99016.99;2236925;78;20926;-80
2022/09/15 08:30:47;;;;;;;10.60;2.58;;;;;;;18.89;71.95;99013.20;2232783;78;21043;-80
2022/09/15 08:33:55;;;;;;;7.00;2.55;;;;;;;18.96;71.44;99011.70;2233375;78;21068;-80
2022/09/15 08:36:55;;;;;;;9.20;2.85;;;;;;;18.83;71.57;99013.39;2207827;78;21476;-80
2022/09/15 08:39:57;;;;;;;10.32;2.45;;;;;;;19.12;71.84;99012.70;2239843;78;21016;-80
2022/09/15 08:43:10;;;;;;;6.87;2.75;;;;;;;19.67;71.92;99013.92;2237394;78;20953;-81
2022/09/15 08:46:17;;;;;;;11.03;2.80;;;;;;;20.15;71.54;99018.95;2235470;78;20978;-82
2022/09/15 08:49:26;;;;;;;7.35;2.65;;;;;;;20.56;70.58;99013.13;2235381;78;20931;-80
2022/09/15 08:52:36;;;;;;;8.27;3.03;;;;;;;20.46;68.21;99010.32;2233523;78;21432;-80
2022/09/15 08:55:52;;;;;;;5.15;2.35;;;;;;;20.04;68.16;99007.81;2236065;78;21686;-81
2022/09/15 08:58:54;;;;;;;7.17;2.85;;;;;;;20.19;68.73;99000.43;2233886;78;21080;-80
2022/09/15 09:02:29;;;;;;;6.65;2.83;;;;;;;20.12;67.42;98993.09;2234656;78;20964;-81
2022/09/15 09:06:25;;;;;;;9.40;2.83;;;;;;;20.07;67.39;98991.16;2235014;78;21512;-80
2022/09/15 09:09:50;;;;;;;4.87;2.50;;;;;;;19.77;66.92;98981.48;2224755;78;21034;-81
2022/09/15 09:13:06;;;;;;;8.23;3.00;;;;;;;19.51;67.41;98978.47;2169760;79;21636;-80
2022/09/15 09:16:24;;;;;;;7.35;2.90;;;;;;;19.87;67.30;98970.79;2211655;79;20960;-81
2022/09/15 09:20:05;;;;;;;5.75;2.77;;;;;;;20.33;66.91;98970.64;2219050;79;20966;-79
2022/09/15 09:23:10;;;;;;;;;;;;;;;20.52;65.07;98972.36;2219616;79;20976;-81
2022/09/15 09:26:14;;;;;;;10.28;2.50;;;;;;;20.26;65.67;98961.15;2211323;79;20184;-79
2022/09/15 09:29:20;;;;;;;6.50;2.30;;;;;;;20.04;65.56;98972.02;2211102;79;21477;-78
2022/09/15 09:32:35;;;;;;;13.03;2.60;;;;;;;20.01;65.44;98969.83;2210532;79;21616;-78
2022/09/15 09:35:48;;;;;;;6.72;2.67;;;;;;;19.84;65.41;98963.22;2212732;79;21014;-84
2022/09/15 09:38:50;;;;;;;6.53;2.40;;;;;;;19.63;65.42;98960.31;2216349;79;21021;-78
2022/09/15 09:41:53;;;;;;;10.15;2.47;;;;;;;19.38;65.07;98964.09;2219700;79;21018;-80
2022/09/15 09:44:55;;;;;;;7.67;3.10;;;;;;;19.09;65.22;98971.02;2212252;79;20966;-78
2022/09/15 09:48:01;;;;;;;7.47;2.58;;;;;;;19.11;66.01;98976.12;2215452;79;21000;-77
2022/09/15 09:51:04;;;;;;;7.53;2.45;;;;;;;19.11;65.74;98976.12;2210791;79;21490;-79
2022/09/15 09:54:14;;;;;;;9.33;2.60;;;;;;;19.10;65.58;98976.66;2217431;79;21526;-78
2022/09/15 09:57:31;;;;;;;5.85;2.17;;;;;;;19.06;65.89;98973.38;2215965;79;21061;-79
2022/09/15 10:00:41;;;;;;;4.45;2.20;;;;;;;19.10;65.77;98977.20;2157083;79;21025;-79
2022/09/15 10:03:44;;;;;;;6.45;2.37;;;;;;;19.10;65.36;98978.02;2216170;79;21386;-78
2022/09/15 10:06:46;;;;;;;7.90;2.62;;;;;;;19.04;65.61;98985.73;2216359;79;20980;-80
2022/09/15 10:09:55;;;;;;;7.47;2.20;;;;;;;18.97;65.13;98977.84;2231503;78;21060;-82
2022/09/15 10:13:01;;;;;;;3.55;2.20;;;;;;;18.92;65.70;98987.70;2244329;78;21571;-79
2022/09/15 10:16:06;;;;;;;9.43;2.72;;;;;;;19.40;66.68;98979.42;2243225;78;20919;-79
2022/09/15 10:19:12;;;;;;;4.35;2.40;;;;;;;19.82;65.42;98970.23;2241085;78;21015;-79
2022/09/15 10:22:33;;;;;;;7.58;2.47;;;;;;;20.11;65.09;98971.28;2242780;78;21022;-79
2022/09/15 10:25:36;;;;;;;4.78;2.37;;;;;;;20.28;64.15;98969.25;2235685;78;21034;-81
2022/09/15 10:28:37;;;;;;;9.43;2.50;;;;;;;20.26;64.07;98970.58;2240864;78;20946;-80
2022/09/15 10:31:40;;;;;;;6.22;2.90;;;;;;;20.30;64.34;98968.98;2241526;78;21012;-80
2022/09/15 10:34:42;;;;;;;4.95;2.08;;;;;;;20.40;63.68;98960.98;2241306;78;20962;-80
2022/09/15 10:38:05;;;;;;;8.68;2.40;;;;;;;20.50;63.67;98954.33;2238242;78;21020;-80
2022/09/15 10:41:27;;;;;;;7.10;2.30;;;;;;;20.86;63.72;98945.09;2239689;78;21056;-81
2022/09/15 10:45:08;;;;;;;7.87;2.62;;;;;;;20.99;63.24;98956.76;2239402;78;22216;-80
2022/09/15 10:48:42;;;;;;;7.60;2.40;;;;;;;20.72;62.58;98954.73;2113698;78;21069;-81
2022/09/15 10:52:27;;;;;;;12.28;2.70;;;;;;;20.45;62.04;98961.56;2241043;78;21008;-80
2022/09/15 10:55:56;;;;;;;4.53;2.22;;;;;;;20.35;62.06;98954.20;2234778;78;21068;-81
2022/09/15 10:59:43;;;;;;;9.18;2.83;;;;;;;20.14;61.37;98940.59;2216041;78;20996;-81
2022/09/15 11:03:05;;;;;;;7.55;3.05;;;;;;;20.01;61.98;98946.95;2240268;78;21061;-81
2022/09/15 11:06:42;;;;;;;10.10;2.75;;;;;;;19.91;61.96;98957.92;2240430;78;20935;-80
2022/09/15 11:09:59;;;;;;;9.15;2.77;;;;;;;19.80;62.53;98962.13;2237789;78;21004;-80
2022/09/15 11:13:18;;;;;;;7.92;2.42;;;;;;;19.82;63.37;98959.97;2201242;78;21507;-80
2022/09/15 11:16:51;;;;;;;5.97;2.50;;;;;;;19.84;63.12;98955.15;2239241;78;20963;-81
2022/09/15 11:20:26;;;;;;;7.15;3.00;;;;;;;19.64;62.94;98948.48;2239449;78;20972;-81
2022/09/15 11:24:06;;;;;;;7.80;2.52;;;;;;;19.48;62.66;98947.53;2237713;78;20970;-80
2022/09/15 11:27:22;;;;;;;5.12;2.50;;;;;;;19.42;63.15;98945.83;2240408;78;21036;-80
2022/09/15 11:30:40;;;;;;;8.78;2.92;;;;;;;19.37;63.38;98949.83;2214858;78;20985;-81
2022/09/15 11:33:59;;;;;;;7.45;2.62;;;;;;;19.24;62.98;98942.95;2233882;78;20941;-80
2022/09/15 11:37:18;;;;;;;6.85;2.58;;;;;;;19.20;63.25;98940.50;2236155;78;21051;-80
2022/09/15 11:40:29;;;;;;;8.28;2.65;;;;;;;19.21;63.30;98937.28;2240628;78;20957;-81
2022/09/15 11:44:02;;;;;;;7.90;2.50;;;;;;;19.14;63.42;98929.38;2228315;78;21001;-81
2022/09/15 11:47:23;;;;;;;10.40;2.72;;;;;;;19.06;62.54;98931.17;2238966;78;20996;-80
2022/09/15 11:50:32;;;;;;;7.00;2.58;;;;;;;18.90;63.10;98936.91;2241797;78;21329;-80
2022/09/15 11:53:38;;;;;;;;;;;;;;;18.77;63.26;98935.39;2245285;78;21350;-80
2022/09/15 11:56:44;;;;;;;9.78;3.05;;;;;;;18.65;63.57;98929.30;2236838;78;20136;-81
2022/09/15 12:00:06;;;;;;;6.40;3.10;;;;;;;18.67;63.98;98924.50;2234763;78;21081;-79
2022/09/15 12:03:25;;;;;;;10.20;2.83;;;;;;;18.76;64.44;98925.72;2226001;78;20973;-80
2022/09/15 12:06:58;;;;;;;7.15;3.15;;;;;;;18.94;64.87;98921.09;2221305;78;21013;-79
2022/09/15 12:10:22;;;;;;;5.58;2.50;;;;;;;19.03;63.95;98919.58;2237761;78;21556;-82
2022/09/15 12:13:25;;;;;;;11.68;3.08;;;;;;;19.00;63.73;98922.23;2236556;78;21454;-78
2022/09/15 12:16:29;;;;;;;5.45;2.60;;;;;;;19.01;63.37;98914.47;2233152;78;21061;-81
2022/09/15 12:19:45;;;;;;;6.67;2.58;;;;;;;19.06;64.12;98923.10;2233084;78;21421;-81
2022/09/15 12:23:01;;;;;;;7.47;2.47;;;;;;;19.20;63.94;98927.56;2237422;78;21586;-80
2022/09/15 12:26:19;;;;;;;9.45;2.60;;;;;;;19.24;63.51;98917.95;2232992;78;20939;-83
2022/09/15 12:29:30;;;;;;;9.38;2.80;;;;;;;19.16;63.10;98921.89;2234626;78;20963;-83
2022/09/15 12:32:35;;;;;;;5.28;3.15;;;;;;;19.10;63.24;98920.21;2234606;78;20936;-80
2022/09/15 12:35:37;;;;;;;5.67;2.52;;;;;;;19.00;63.40;98918.20;2233654;78;21009;-80
2022/09/15 12:38:43;;;;;;;5.00;2.55;;;;;;;19.07;63.45;98920.72;2238953;78;21638;-87
2022/09/15 12:41:53;;;;;;;9.45;3.00;;;;;;;19.11;63.00;98909.73;2237584;78;21093;-80
2022/09/15 12:45:09;;;;;;;8.57;2.73;;;;;;;19.09;63.00;98910.53;2227606;78;21008;-80
2022/09/15 12:48:32;;;;;;;4.92;2.52;;;;;;;19.08;62.57;98907.55;2207126;78;20989;-81
2022/09/15 12:51:33;;;;;;;11.20;2.80;;;;;;;19.07;62.89;98905.13;2234397;78;21007;-79
2022/09/15 12:54:38;;;;;;;5.33;3.20;;;;;;;19.03;62.49;98902.11;2238799;78;21661;-80
2022/09/15 12:57:40;;;;;;;9.13;3.12;;;;;;;18.93;62.62;98903.34;2231062;78;21042;-78
2022/09/15 13:00:46;;;;;;;9.20;3.60;;;;;;;18.87;63.11;98901.67;2231558;78;21013;-79
2022/09/15 13:03:56;;;;;;;11.43;3.30;;;;;;;18.81;63.36;98901.60;2233891;78;22339;-79
2022/09/15 13:07:20;;;;;;;4.45;2.30;;;;;;;18.77;63.25;98893.73;2232692;78;21657;-79
2022/09/15 13:10:39;;;;;;;9.93;3.25;;;;;;;18.71;63.19;98889.34;2224325;78;21043;-78
2022/09/15 13:13:53;;;;;;;3.83;2.70;;;;;;;18.68;63.58;98889.03;2199843;79;20936;-80
2022/09/15 13:17:15;;;;;;;7.95;2.72;;;;;;;18.64;63.79;98895.45;2215740;79;21368;-78
2022/09/15 13:20:22;;;;;;;11.48;3.08;;;;;;;18.59;63.83;98891.34;2212047;79;21030;-79
2022/09/15 13:23:26;;;;;;;7.37;2.58;;;;;;;18.47;63.60;98886.59;2209103;79;21367;-81
2022/09/15 13:26:31;;;;;;;11.50;3.02;;;;;;;18.44;64.01;98884.41;2187030;79;21436;-86
2022/09/15 13:29:38;;;;;;;7.33;3.45;;;;;;;18.46;64.14;98884.98;2212902;79;20999;-78
2022/09/15 13:32:45;;;;;;;8.10;3.50;;;;;;;18.45;64.21;98884.71;2214208;79;21042;-79
2022/09/15 13:35:55;;;;;;;11.78;2.85;;;;;;;18.49;64.21;98871.05;2217808;79;21049;-80
2022/09/15 13:39:25;;;;;;;8.78;2.85;;;;;;;18.50;64.58;98880.22;2177205;79;21027;-79
2022/09/15 13:42:53;;;;;;;14.15;3.85;;;;;;;18.55;64.52;98874.08;2219362;79;20982;-79
2022/09/15 13:46:32;;;;;;;10.72;4.78;;;;;;;18.61;64.81;98882.48;2220496;79;20947;-80
2022/09/15 13:50:25;;;;;;;8.70;3.40;;;;;;;18.77;64.75;98877.62;2212237;79;20994;-79
2022/09/15 13:53:58;;;;;;;7.40;3.25;;;;;;;18.86;64.55;98873.95;2213320;79;21698;-83
2022/09/15 13:57:01;;;;;;;15.93;3.00;;;;;;;18.87;64.50;98872.91;2217967;79;20947;-79
2022/09/15 14:00:06;;;;;;;9.38;3.60;;;;;;;18.85;64.55;98874.22;2217064;79;20970;-79
2022/09/15 14:03:18;;;;;;;7.85;3.30;;;;;;;18.82;64.71;98874.19;2215935;79;21008;-78
2022/09/15 14:06:37;;;;;;;6.70;3.17;;;;;;;18.86;65.11;98873.16;2214605;79;20995;-78
2022/09/15 14:09:46;;;;;;;5.50;2.87;;;;;;;18.84;65.08;98872.08;2215259;78;21020;-80
2022/09/15 14:12:48;;;;;;;6.70;3.02;;;;;;;18.80;64.85;98871.73;2233874;78;21088;-79
2022/09/15 14:16:01;;;;;;;7.60;3.60;;;;;;;18.71;64.11;98874.56;2209851;78;21079;-79
2022/09/15 14:19:34;;;;;;;5.92;3.37;;;;;;;18.59;63.91;98869.85;2233887;78;21434;-80
2022/09/15 14:22:39;;;;;;;7.60;3.15;;;;;;;18.48;63.56;98869.44;2235392;78;21546;-80
2022/09/15 14:25:44;;;;;;;5.25;3.02;;;;;;;18.35;63.64;98870.06;2238316;78;21009;-83
2022/09/15 14:29:00;;;;;;;10.98;3.58;;;;;;;18.30;64.11;98870.52;2235488;78;20954;-81
2022/09/15 14:32:02;;;;;;;8.55;3.72;;;;;;;18.26;63.72;98872.09;2232649;78;21089;-81
2022/09/15 14:35:08;;;;;;;8.00;3.70;;;;;;;18.13;63.99;98873.23;2234042;78;20996;-83
2022/09/15 14:38:25;;;;;;;8.13;3.40;;;;;;;18.09;64.16;98868.09;2205922;78;20986;-80
2022/09/15 14:41:34;;;;;;;5.87;3.02;;;;;;;18.05;64.36;98871.80;2235276;78;21032;-81